Главная страница
METAR-TAF:

METAR-TAF

Аэропорты :

Брянск, Россия

широта: 53-15N, долгота: 034-19E, высота над уровнем моря: 217 м

Текущие метеонаблюдения

Эта сводка был подготовлена 7 часа и 34 минут назад, в 15:00 UTC
Ветер 6 Узел от северо-восточный
Температура 23°C
Влажность 57%
Давление 1020 hPa
Видимость 10 км и более
Нет облачности ниже 1500 м, и нет кучево-дождевой облачности

METAR: UUBP 171500Z 04003MPS CAVOK 23/14 Q1020 R34/CLRD70 NOSIG RMK QFE747/0997

Время: 01:34 (22:34 UTC)

Прогноз

Эта сводка был подготовлена 8 часа и 42 минут назад, в 13:52 UTC
Прогноз действительный с 17-го 15 UTC до 17-го 24 UTC
Ветер 12 Узел от северо-восточный
Видимость 10 км и более
Рассеянная облачность на высоте 3000 фута

TAF: UUBP 171352Z 1715/1724 05006MPS 9999 BKN030

Метеонаблюдения и прогнозы для более 4000 аэропортов (сводки METAR и TAF).

Имеющиеся станции представлены на карте желтыми и красными точками.

Чтобы увидеть название станции, наведите на нее мышь.

Затем щелкните, чтобы увидеть метеонаблюдения и метеопрогнозы.

Управление картой: чтобы увеличить масштаб, щелкните зеленые кнопки с черным крестиком; чтобы уменьшить масштаб, щелкните зеленую кнопку с тире; для просмотра соседних карт щелкайте зеленые стрелки.


METAR-TAF: